Time;durP1;ratioP1;P1;durP2;ratioP2;P2;SDS_P1;SDS_P2;PMS_P1;PMS_P2;Temp;Humidity;BMP_temperature;BMP_pressure;BME280_temperature;BME280_humidity;BME280_pressure;Samples;Min_cycle;Max_cycle;Signal;HPM_P1;HPM_P2
2023/10/06 00:01:12;;;;;;;2.20;1.90;;;21.40;99.90;;;;;;4998006;28;20905;-56
2023/10/06 00:03:44;;;;;;;2.10;1.85;;;21.40;99.90;;;;;;5002088;28;21096;-55
2023/10/06 00:06:15;;;;;;;2.17;1.83;;;21.30;99.90;;;;;;5000770;28;20318;-55
2023/10/06 00:08:51;;;;;;;1.55;1.45;;;21.30;99.90;;;;;;4996091;28;20502;-55
2023/10/06 00:11:28;;;;;;;3.20;1.50;;;21.30;99.90;;;;;;5002039;28;20199;-51
2023/10/06 00:14:00;;;;;;;2.30;1.80;;;21.40;99.90;;;;;;5002065;28;20524;-56
2023/10/06 00:16:27;;;;;;;2.33;1.87;;;21.40;99.90;;;;;;5001374;28;20459;-50
2023/10/06 00:18:59;;;;;;;4.80;2.58;;;21.40;99.90;;;;;;4997777;28;20458;-51
2023/10/06 00:21:28;;;;;;;2.50;1.43;;;21.40;99.90;;;;;;5000687;28;20274;-54
2023/10/06 00:23:57;;;;;;;2.40;1.90;;;21.40;99.90;;;;;;5002021;28;20462;-48
2023/10/06 00:26:26;;;;;;;3.00;1.60;;;21.40;99.90;;;;;;5001036;28;20461;-50
2023/10/06 00:28:53;;;;;;;1.60;1.50;;;21.40;99.90;;;;;;5001308;28;21171;-53
2023/10/06 00:31:19;;;;;;;2.65;1.85;;;21.30;99.90;;;;;;5001821;28;20458;-56
2023/10/06 00:33:46;;;;;;;1.95;1.65;;;21.50;99.90;;;;;;5005671;28;20196;-50
2023/10/06 00:36:14;;;;;;;4.20;2.43;;;21.40;99.90;;;;;;5000088;28;20680;-52
2023/10/06 00:38:42;;;;;;;2.22;1.60;;;21.30;99.90;;;;;;5001166;28;20463;-51
2023/10/06 00:41:14;;;;;;;2.33;1.77;;;21.30;99.90;;;;;;5001336;28;20289;-50
2023/10/06 00:43:43;;;;;;;1.80;1.60;;;21.40;99.90;;;;;;5004653;28;20885;-52
2023/10/06 00:46:11;;;;;;;1.77;1.40;;;21.30;99.90;;;;;;5003328;28;20469;-56
2023/10/06 00:48:39;;;;;;;2.28;1.60;;;21.40;99.90;;;;;;5003305;28;20208;-49
2023/10/06 00:51:11;;;;;;;3.22;1.85;;;21.30;99.90;;;;;;5003883;28;20273;-51
2023/10/06 00:53:39;;;;;;;2.95;1.95;;;21.30;99.90;;;;;;5002979;28;20198;-55
2023/10/06 00:56:10;;;;;;;1.88;1.67;;;21.30;99.90;;;;;;5000321;28;20199;-49
2023/10/06 00:58:41;;;;;;;2.17;1.73;;;21.30;99.90;;;;;;5004172;28;20221;-56
2023/10/06 01:01:12;;;;;;;1.88;1.67;;;21.30;99.90;;;;;;4999819;28;20195;-52
2023/10/06 01:03:39;;;;;;;1.95;1.83;;;21.30;99.90;;;;;;4999471;28;20238;-50
2023/10/06 01:06:13;;;;;;;2.50;1.73;;;21.30;99.90;;;;;;5002432;28;20198;-55
2023/10/06 01:08:45;;;;;;;1.70;1.45;;;21.30;99.90;;;;;;5001157;28;20214;-55
2023/10/06 01:11:17;;;;;;;1.83;1.55;;;21.40;99.90;;;;;;4999250;28;20200;-51
2023/10/06 01:13:55;;;;;;;1.90;1.35;;;21.40;99.90;;;;;;4997550;28;20896;-54
2023/10/06 01:16:34;;;;;;;2.17;1.98;;;21.30;99.90;;;;;;5000290;28;20537;-51
2023/10/06 01:19:14;;;;;;;1.40;1.30;;;21.30;99.90;;;;;;4999013;28;20203;-51
2023/10/06 01:21:41;;;;;;;2.35;1.80;;;21.30;99.90;;;;;;4999181;28;20342;-54
2023/10/06 01:24:13;;;;;;;2.45;1.73;;;21.30;99.90;;;;;;5000744;28;20196;-54
2023/10/06 01:26:42;;;;;;;2.70;2.00;;;21.30;99.90;;;;;;5000507;28;22421;-55
2023/10/06 01:29:11;;;;;;;1.80;1.27;;;21.30;99.90;;;;;;5001006;28;20522;-53
2023/10/06 01:31:40;;;;;;;1.92;1.52;;;21.30;99.90;;;;;;4999136;28;20207;-54
2023/10/06 01:34:08;;;;;;;3.58;2.30;;;21.20;99.90;;;;;;4999202;28;20203;-51
2023/10/06 01:36:36;;;;;;;2.23;1.60;;;21.30;99.90;;;;;;4998346;28;20676;-54
2023/10/06 01:39:04;;;;;;;2.00;1.80;;;21.20;99.90;;;;;;5002287;28;20816;-51
2023/10/06 01:41:34;;;;;;;2.30;1.80;;;21.30;99.90;;;;;;5000497;28;20239;-53
2023/10/06 01:44:01;;;;;;;2.27;1.70;;;21.30;99.90;;;;;;4999142;28;20954;-52
2023/10/06 01:46:29;;;;;;;1.60;1.50;;;21.20;99.90;;;;;;4999041;28;21381;-53
2023/10/06 01:48:56;;;;;;;2.30;1.70;;;21.20;99.90;;;;;;4999372;28;20219;-54
2023/10/06 01:51:23;;;;;;;2.22;1.50;;;21.30;99.90;;;;;;4998043;28;20199;-50
2023/10/06 01:53:50;;;;;;;1.70;1.50;;;21.30;99.90;;;;;;5002984;28;20206;-54
2023/10/06 01:56:22;;;;;;;2.30;1.75;;;21.20;99.90;;;;;;5001228;28;20220;-53
2023/10/06 01:58:51;;;;;;;1.53;1.33;;;21.30;99.90;;;;;;4999995;28;20687;-54
2023/10/06 02:01:19;;;;;;;2.65;1.85;;;21.30;99.90;;;;;;5003071;28;20478;-57
2023/10/06 02:03:45;;;;;;;1.97;1.57;;;21.30;99.90;;;;;;5000850;28;20282;-51
2023/10/06 02:06:15;;;;;;;1.70;1.60;;;21.20;99.90;;;;;;5000296;28;20461;-56
2023/10/06 02:08:49;;;;;;;2.30;1.60;;;21.20;99.90;;;;;;4999033;28;20343;-55
2023/10/06 02:11:16;;;;;;;2.03;1.50;;;21.20;99.90;;;;;;4997397;28;20192;-56
2023/10/06 02:13:43;;;;;;;1.85;1.50;;;21.20;99.90;;;;;;4997942;28;20465;-57
2023/10/06 02:16:11;;;;;;;1.73;1.57;;;21.30;99.90;;;;;;4999726;28;20867;-47
2023/10/06 02:18:39;;;;;;;1.42;1.30;;;21.30;99.90;;;;;;5001212;28;20962;-52
2023/10/06 02:21:11;;;;;;;2.03;1.48;;;21.30;99.90;;;;;;5001496;28;20216;-57
2023/10/06 02:23:38;;;;;;;2.17;1.73;;;21.10;99.90;;;;;;5001538;28;20608;-51
2023/10/06 02:26:10;;;;;;;2.55;1.33;;;21.20;99.90;;;;;;4999856;28;20484;-51
2023/10/06 02:28:43;;;;;;;2.13;1.60;;;21.10;99.90;;;;;;5002313;28;20219;-52
2023/10/06 02:31:12;;;;;;;2.00;1.80;;;21.20;99.90;;;;;;4999902;28;20269;-49
2023/10/06 02:33:39;;;;;;;2.25;1.85;;;21.20;99.90;;;;;;4996920;28;20200;-51
2023/10/06 02:36:15;;;;;;;2.05;1.80;;;21.20;99.90;;;;;;4999733;28;20205;-54
2023/10/06 02:38:46;;;;;;;2.67;1.70;;;21.20;99.90;;;;;;5003822;28;20222;-50
2023/10/06 02:41:18;;;;;;;2.17;1.77;;;21.30;99.90;;;;;;5001631;28;20211;-54
2023/10/06 02:43:46;;;;;;;2.30;1.67;;;21.30;99.90;;;;;;4997201;28;20200;-52
2023/10/06 02:46:16;;;;;;;2.13;1.63;;;21.30;99.90;;;;;;5002640;28;20238;-55
2023/10/06 02:48:49;;;;;;;2.42;1.95;;;21.20;99.90;;;;;;4996260;28;20216;-53
2023/10/06 02:51:22;;;;;;;1.98;1.73;;;21.10;99.90;;;;;;4999976;28;20202;-52
2023/10/06 02:53:51;;;;;;;2.00;1.50;;;21.20;99.90;;;;;;4999536;28;20215;-52
2023/10/06 02:56:28;;;;;;;1.70;1.40;;;21.20;99.90;;;;;;4996889;28;20291;-53
2023/10/06 02:58:59;;;;;;;1.73;1.33;;;21.20;99.90;;;;;;4999111;28;20708;-48
2023/10/06 03:01:27;;;;;;;1.95;1.75;;;21.20;99.90;;;;;;5000254;28;20462;-53
2023/10/06 03:04:06;;;;;;;2.80;2.10;;;21.20;99.90;;;;;;5003135;28;20220;-50
2023/10/06 03:06:32;;;;;;;2.00;1.80;;;21.20;99.90;;;;;;5002087;28;20885;-47
2023/10/06 03:09:05;;;;;;;2.95;2.65;;;21.20;99.90;;;;;;5002140;28;20217;-54
2023/10/06 03:11:33;;;;;;;2.53;1.73;;;21.20;99.90;;;;;;5000166;28;20285;-52
2023/10/06 03:14:00;;;;;;;1.75;1.58;;;21.20;99.90;;;;;;5002904;28;20337;-49
2023/10/06 03:16:29;;;;;;;1.83;1.30;;;21.20;99.90;;;;;;4999982;28;20260;-53
2023/10/06 03:18:57;;;;;;;2.10;1.90;;;21.40;99.90;;;;;;5002705;28;20215;-55
2023/10/06 03:21:24;;;;;;;1.80;1.55;;;21.20;99.90;;;;;;4998512;28;20200;-51
2023/10/06 03:24:00;;;;;;;2.20;1.60;;;21.30;99.90;;;;;;5002905;28;20188;-49
2023/10/06 03:26:30;;;;;;;1.60;1.50;;;21.10;99.90;;;;;;4998900;28;20198;-52
2023/10/06 03:29:02;;;;;;;2.40;1.80;;;21.20;99.90;;;;;;4999231;28;20199;-55
2023/10/06 03:31:44;;;;;;;1.40;1.30;;;21.20;99.90;;;;;;4999950;28;20196;-57
2023/10/06 03:34:15;;;;;;;1.70;1.50;;;21.20;99.90;;;;;;5000733;28;20291;-50
2023/10/06 03:36:51;;;;;;;1.80;1.52;;;21.10;99.90;;;;;;4995485;28;20462;-51
2023/10/06 03:39:22;;;;;;;2.55;1.52;;;21.20;99.90;;;;;;4998326;28;20227;-55
2023/10/06 03:41:52;;;;;;;1.55;1.40;;;21.20;99.90;;;;;;4997971;28;21043;-47
2023/10/06 03:44:26;;;;;;;1.67;1.50;;;21.10;99.90;;;;;;4997484;28;20224;-48
2023/10/06 03:46:57;;;;;;;2.13;1.90;;;21.10;99.90;;;;;;4996283;28;20197;-52
2023/10/06 03:49:26;;;;;;;1.77;1.55;;;21.10;99.90;;;;;;4998022;28;20211;-57
2023/10/06 03:51:55;;;;;;;1.90;1.70;;;21.10;99.90;;;;;;4999154;28;20289;-51
2023/10/06 03:54:22;;;;;;;2.30;1.60;;;21.20;99.90;;;;;;4999723;28;20192;-50
2023/10/06 03:56:49;;;;;;;1.60;1.50;;;21.10;99.90;;;;;;4999438;28;20204;-50
2023/10/06 03:59:16;;;;;;;1.42;1.27;;;21.10;99.90;;;;;;4995193;28;20227;-50
2023/10/06 04:01:44;;;;;;;1.85;1.65;;;21.10;99.90;;;;;;4995842;28;20226;-50
2023/10/06 04:04:15;;;;;;;1.75;1.52;;;21.20;99.90;;;;;;4999442;28;20416;-47
2023/10/06 04:06:43;;;;;;;2.15;1.55;;;21.10;99.90;;;;;;4997365;28;20274;-52
2023/10/06 04:09:11;;;;;;;2.47;2.00;;;21.20;99.90;;;;;;4997458;28;21085;-52
2023/10/06 04:11:38;;;;;;;3.38;1.80;;;21.10;99.90;;;;;;4996521;28;20338;-49
2023/10/06 04:14:05;;;;;;;2.00;1.80;;;21.10;99.90;;;;;;4999158;28;20743;-52
2023/10/06 04:16:45;;;;;;;2.10;1.70;;;21.10;99.90;;;;;;4994493;28;20196;-53
2023/10/06 04:19:15;;;;;;;2.65;1.60;;;21.10;99.90;;;;;;4999729;28;20990;-53
2023/10/06 04:21:41;;;;;;;1.58;1.33;;;21.10;99.90;;;;;;5002288;28;20932;-54
2023/10/06 04:24:09;;;;;;;1.52;1.42;;;21.10;99.90;;;;;;4999579;28;20200;-50
2023/10/06 04:26:36;;;;;;;1.75;1.65;;;21.10;99.90;;;;;;4999758;28;20238;-54
2023/10/06 04:29:04;;;;;;;1.60;1.50;;;21.10;99.90;;;;;;5002536;28;20226;-49
2023/10/06 04:31:31;;;;;;;1.48;1.38;;;21.10;99.90;;;;;;5001169;28;20292;-53
2023/10/06 04:33:58;;;;;;;1.60;1.40;;;21.10;99.90;;;;;;4995236;28;20960;-54
2023/10/06 04:36:27;;;;;;;3.88;1.45;;;21.10;99.90;;;;;;5001117;28;20204;-56
2023/10/06 04:38:54;;;;;;;3.28;1.60;;;21.10;99.90;;;;;;5002503;28;20378;-51
2023/10/06 04:41:21;;;;;;;1.63;1.52;;;21.10;99.90;;;;;;5001533;28;20210;-54
2023/10/06 04:43:47;;;;;;;2.55;1.60;;;21.10;99.90;;;;;;4999970;28;20207;-54
2023/10/06 04:46:14;;;;;;;1.75;1.50;;;21.10;99.90;;;;;;5001336;28;20196;-54
2023/10/06 04:48:41;;;;;;;1.60;1.10;;;21.20;99.90;;;;;;5002625;28;20573;-53
2023/10/06 04:51:10;;;;;;;2.10;1.63;;;21.00;99.90;;;;;;5000915;28;20195;-53
2023/10/06 04:53:38;;;;;;;1.50;1.30;;;21.10;99.90;;;;;;5004083;28;20597;-52
2023/10/06 04:56:05;;;;;;;2.80;1.55;;;21.10;99.90;;;;;;4998277;28;20199;-50
2023/10/06 04:58:32;;;;;;;1.85;1.45;;;21.10;99.90;;;;;;5004650;28;21175;-53
2023/10/06 05:01:00;;;;;;;1.50;1.40;;;21.10;99.90;;;;;;4999849;28;20210;-48
2023/10/06 05:03:27;;;;;;;2.50;1.77;;;21.00;99.90;;;;;;5001125;28;20200;-51
2023/10/06 05:05:56;;;;;;;2.15;1.70;;;21.10;99.90;;;;;;5000085;28;20576;-52
2023/10/06 05:08:24;;;;;;;1.88;1.63;;;21.10;99.90;;;;;;4999467;28;20205;-55
2023/10/06 05:10:55;;;;;;;2.25;1.30;;;21.10;99.90;;;;;;5005483;28;21102;-54
2023/10/06 05:13:22;;;;;;;1.40;1.30;;;21.00;99.90;;;;;;5003069;28;20192;-52
2023/10/06 05:15:50;;;;;;;1.80;1.50;;;21.10;99.90;;;;;;5003303;28;20212;-53
2023/10/06 05:18:16;;;;;;;1.73;1.52;;;21.00;99.90;;;;;;5004851;28;20224;-54
2023/10/06 05:20:43;;;;;;;1.67;1.58;;;21.00;99.90;;;;;;5004721;28;20203;-50
2023/10/06 05:23:11;;;;;;;1.98;1.77;;;21.00;99.90;;;;;;5004492;28;20551;-51
2023/10/06 05:25:39;;;;;;;1.75;1.45;;;21.00;99.90;;;;;;5003834;28;20800;-51
2023/10/06 05:28:10;;;;;;;1.55;1.33;;;21.20;99.90;;;;;;5004081;28;20207;-56
2023/10/06 05:30:37;;;;;;;2.00;1.80;;;21.00;99.90;;;;;;5001343;28;20207;-52
2023/10/06 05:33:05;;;;;;;2.00;1.35;;;21.00;99.90;;;;;;4997269;28;20200;-51
2023/10/06 05:35:36;;;;;;;2.00;1.40;;;21.00;99.90;;;;;;5000539;28;20195;-51
2023/10/06 05:38:03;;;;;;;1.40;1.30;;;21.00;99.90;;;;;;5003876;28;20197;-56
2023/10/06 05:40:30;;;;;;;2.00;1.80;;;21.00;99.90;;;;;;5000163;28;20467;-52
2023/10/06 05:42:57;;;;;;;2.83;1.30;;;21.10;99.90;;;;;;5001713;28;20196;-57
2023/10/06 05:45:25;;;;;;;1.77;1.67;;;21.00;99.90;;;;;;5001101;28;20293;-55
2023/10/06 05:47:54;;;;;;;1.50;1.40;;;21.10;99.90;;;;;;5004158;28;20283;-51
2023/10/06 05:50:27;;;;;;;1.75;1.65;;;21.00;99.90;;;;;;5002299;28;20326;-55
2023/10/06 05:53:01;;;;;;;1.77;1.63;;;21.10;99.90;;;;;;5002725;28;20192;-53
2023/10/06 05:55:31;;;;;;;1.60;1.48;;;21.00;99.90;;;;;;4996456;28;20466;-54
2023/10/06 05:58:00;;;;;;;1.33;1.08;;;21.10;99.90;;;;;;4997737;28;20199;-56
2023/10/06 06:00:30;;;;;;;1.73;1.40;;;21.10;99.90;;;;;;4997453;28;20297;-56
2023/10/06 06:02:59;;;;;;;1.45;1.27;;;21.00;99.90;;;;;;5001796;28;20784;-49
2023/10/06 06:05:29;;;;;;;1.60;1.42;;;21.20;99.90;;;;;;5001335;28;20196;-57
2023/10/06 06:07:59;;;;;;;1.80;1.47;;;21.00;99.90;;;;;;4998128;28;20209;-48
2023/10/06 06:10:28;;;;;;;1.50;1.40;;;21.00;99.90;;;;;;5000212;28;20475;-54
2023/10/06 06:12:55;;;;;;;2.00;1.40;;;21.10;99.90;;;;;;4999312;28;20204;-50
2023/10/06 06:15:24;;;;;;;2.20;1.35;;;21.00;99.90;;;;;;4996264;28;20197;-48
2023/10/06 06:17:53;;;;;;;1.15;1.05;;;21.10;99.90;;;;;;4999414;28;20211;-52
2023/10/06 06:20:22;;;;;;;1.92;1.50;;;21.00;99.90;;;;;;4998886;28;20226;-54
2023/10/06 06:22:53;;;;;;;1.50;1.13;;;21.00;99.90;;;;;;4998303;28;20700;-46
2023/10/06 06:25:20;;;;;;;1.83;1.52;;;21.10;99.90;;;;;;4998481;28;20917;-48
2023/10/06 06:27:47;;;;;;;1.33;1.10;;;21.00;99.90;;;;;;4997536;28;20189;-54
2023/10/06 06:30:18;;;;;;;1.60;1.35;;;21.00;99.90;;;;;;4999502;28;20210;-53
2023/10/06 06:32:49;;;;;;;2.00;1.50;;;21.10;99.90;;;;;;4990324;28;20209;-52
2023/10/06 06:35:19;;;;;;;1.30;1.20;;;21.10;99.90;;;;;;4997158;28;21936;-50
2023/10/06 06:37:47;;;;;;;1.45;1.30;;;21.10;99.90;;;;;;4999865;28;20205;-52
2023/10/06 06:40:14;;;;;;;1.80;1.58;;;21.10;99.90;;;;;;4998028;28;20845;-52
2023/10/06 06:42:41;;;;;;;2.10;1.63;;;21.10;99.90;;;;;;4993739;28;20891;-52
2023/10/06 06:45:13;;;;;;;1.75;1.40;;;21.00;99.90;;;;;;4998207;28;20684;-50
2023/10/06 06:47:41;;;;;;;1.60;1.30;;;21.10;99.90;;;;;;5000901;28;20207;-49
2023/10/06 06:50:09;;;;;;;1.52;1.30;;;21.10;99.90;;;;;;4998517;28;20207;-46
2023/10/06 06:52:38;;;;;;;1.60;1.10;;;21.10;99.90;;;;;;4998287;28;20289;-46
2023/10/06 06:55:12;;;;;;;1.50;1.20;;;21.10;99.90;;;;;;4997318;28;20236;-48
2023/10/06 06:57:43;;;;;;;1.90;1.63;;;21.10;99.90;;;;;;4997648;28;20306;-52
2023/10/06 07:00:16;;;;;;;1.83;1.30;;;21.10;99.90;;;;;;4996869;28;20270;-50
2023/10/06 07:02:44;;;;;;;1.60;1.30;;;21.10;99.90;;;;;;4993601;28;20204;-54
2023/10/06 07:05:12;;;;;;;1.58;1.40;;;21.20;99.90;;;;;;5001124;28;20224;-55
2023/10/06 07:07:42;;;;;;;3.08;1.45;;;21.10;99.90;;;;;;4998133;28;20634;-49
2023/10/06 07:10:13;;;;;;;1.38;1.00;;;21.00;99.90;;;;;;5001350;28;20196;-51
2023/10/06 07:12:39;;;;;;;2.00;1.40;;;21.10;99.90;;;;;;5001917;28;20567;-53
2023/10/06 07:15:14;;;;;;;1.63;1.52;;;21.10;99.90;;;;;;5001812;28;20196;-58
2023/10/06 07:17:42;;;;;;;1.90;1.35;;;21.10;99.90;;;;;;4999817;28;20196;-52
2023/10/06 07:20:14;;;;;;;1.50;1.25;;;21.20;99.90;;;;;;4998858;28;20232;-52
2023/10/06 07:22:42;;;;;;;1.52;1.25;;;21.10;99.90;;;;;;4999541;28;20196;-52
2023/10/06 07:25:10;;;;;;;1.60;1.50;;;21.10;99.90;;;;;;5001129;28;20207;-54
2023/10/06 07:27:37;;;;;;;1.50;1.33;;;21.10;99.90;;;;;;5004252;28;20653;-51
2023/10/06 07:30:09;;;;;;;2.20;1.55;;;21.10;99.90;;;;;;5001557;28;22141;-51
2023/10/06 07:32:40;;;;;;;1.40;1.25;;;21.20;99.90;;;;;;5002127;28;20270;-49
2023/10/06 07:35:08;;;;;;;1.40;1.30;;;21.30;99.90;;;;;;4999662;28;20191;-53
2023/10/06 07:37:36;;;;;;;1.47;1.37;;;21.20;99.90;;;;;;4995315;28;20459;-45
2023/10/06 07:40:12;;;;;;;1.75;1.40;;;21.20;99.90;;;;;;4999570;28;20482;-51
2023/10/06 07:42:41;;;;;;;1.85;1.45;;;21.20;99.90;;;;;;4992328;28;20307;-55
2023/10/06 07:45:09;;;;;;;1.50;1.20;;;21.20;99.90;;;;;;4995596;28;20198;-47
2023/10/06 07:47:36;;;;;;;1.30;1.10;;;21.10;99.90;;;;;;4999265;28;20760;-51
2023/10/06 07:50:04;;;;;;;1.63;1.50;;;21.20;99.90;;;;;;5000225;28;20250;-55
2023/10/06 07:52:31;;;;;;;1.27;1.00;;;21.20;99.90;;;;;;4996504;28;20266;-52
2023/10/06 07:54:59;;;;;;;1.65;1.08;;;21.10;99.90;;;;;;5000311;28;20434;-54
2023/10/06 07:57:31;;;;;;;2.03;1.50;;;21.20;99.90;;;;;;5002985;28;20599;-51
2023/10/06 07:59:59;;;;;;;18.48;1.70;;;21.10;99.90;;;;;;4997310;28;20261;-53
2023/10/06 08:02:29;;;;;;;1.93;1.43;;;21.30;99.90;;;;;;4992866;28;20239;-58
2023/10/06 08:04:55;;;;;;;8.60;2.05;;;21.20;99.90;;;;;;4994787;28;20524;-52
2023/10/06 08:07:26;;;;;;;6.93;1.98;;;21.30;99.90;;;;;;4991570;28;20287;-51
2023/10/06 08:09:53;;;;;;;2.80;1.77;;;21.20;99.90;;;;;;4996211;28;20214;-49
2023/10/06 08:12:20;;;;;;;3.53;1.80;;;21.30;99.90;;;;;;4996504;28;20207;-53
2023/10/06 08:14:48;;;;;;;2.13;1.67;;;21.10;99.90;;;;;;4997500;28;20466;-51
2023/10/06 08:17:15;;;;;;;1.60;1.50;;;21.30;99.90;;;;;;5002215;28;20567;-51
2023/10/06 08:19:41;;;;;;;5.75;1.90;;;21.20;99.90;;;;;;5001703;28;20482;-55
2023/10/06 08:22:08;;;;;;;4.20;1.90;;;21.30;99.90;;;;;;5002184;28;20862;-54
2023/10/06 08:24:35;;;;;;;5.40;2.23;;;21.30;99.90;;;;;;5000307;28;20196;-51
2023/10/06 08:27:02;;;;;;;3.70;1.98;;;21.40;99.90;;;;;;5003338;28;20463;-52
2023/10/06 08:29:29;;;;;;;2.00;1.40;;;21.30;99.90;;;;;;4996272;28;20207;-49
2023/10/06 08:31:57;;;;;;;4.63;1.93;;;21.40;99.90;;;;;;4999554;28;20466;-52
2023/10/06 08:34:25;;;;;;;3.47;1.85;;;21.30;99.90;;;;;;4992377;28;20454;-54
2023/10/06 08:36:52;;;;;;;8.65;1.92;;;21.30;99.90;;;;;;5001152;28;20223;-50
2023/10/06 08:39:20;;;;;;;3.60;2.00;;;21.40;99.90;;;;;;4997027;28;20775;-51
2023/10/06 08:41:51;;;;;;;3.20;2.60;;;21.40;99.90;;;;;;5000290;28;21072;-54
2023/10/06 08:44:20;;;;;;;3.63;2.27;;;21.40;99.90;;;;;;5001191;28;20573;-48
2023/10/06 08:46:47;;;;;;;7.83;2.17;;;21.40;99.90;;;;;;5000555;28;20837;-50
2023/10/06 08:49:19;;;;;;;4.60;2.30;;;21.50;99.90;;;;;;4999574;28;20462;-56
2023/10/06 08:51:50;;;;;;;3.43;2.07;;;21.50;99.90;;;;;;4999600;28;20557;-51
2023/10/06 08:54:19;;;;;;;3.20;1.97;;;21.50;99.90;;;;;;4999314;28;20489;-50
2023/10/06 08:56:46;;;;;;;7.60;2.30;;;21.50;99.90;;;;;;4997580;28;20500;-48
2023/10/06 08:59:16;;;;;;;8.80;3.03;;;21.50;99.90;;;;;;5000258;28;21006;-54
2023/10/06 09:01:44;;;;;;;4.43;2.93;;;21.50;99.90;;;;;;5000133;28;20512;-56
2023/10/06 09:04:11;;;;;;;3.40;2.43;;;21.50;99.90;;;;;;5000163;28;20533;-54
2023/10/06 09:07:09;;;;;;;5.00;3.00;;;21.50;99.90;;;;;;5000201;28;20454;-53
2023/10/06 09:09:36;;;;;;;4.33;3.07;;;21.50;99.90;;;;;;5002435;28;20466;-52
2023/10/06 09:12:03;;;;;;;4.77;2.60;;;21.50;99.90;;;;;;5002608;28;20959;-54
2023/10/06 09:14:30;;;;;;;5.13;2.13;;;21.60;99.90;;;;;;4996963;28;20587;-54
2023/10/06 09:17:01;;;;;;;4.90;2.90;;;21.70;99.90;;;;;;4994359;28;20481;-55
2023/10/06 09:19:38;;;;;;;4.07;3.07;;;21.60;99.90;;;;;;5001563;28;20492;-53
2023/10/06 09:22:07;;;;;;;4.17;3.50;;;21.60;99.90;;;;;;5003375;28;20471;-53
2023/10/06 09:24:34;;;;;;;6.30;4.80;;;21.60;99.90;;;;;;4996393;28;20462;-56
2023/10/06 09:27:18;;;;;;;5.63;3.40;;;21.60;99.90;;;;;;4995208;28;20469;-57
2023/10/06 09:29:45;;;;;;;5.00;4.23;;;21.60;99.90;;;;;;4997523;28;20470;-55
2023/10/06 09:32:21;;;;;;;5.53;3.50;;;21.60;99.90;;;;;;4998436;28;20466;-52
2023/10/06 09:34:53;;;;;;;5.03;3.73;;;21.60;99.90;;;;;;5000036;28;20500;-48
2023/10/06 09:37:21;;;;;;;5.77;3.90;;;21.70;99.90;;;;;;4998150;28;20469;-51
2023/10/06 09:39:56;;;;;;;4.72;3.88;;;21.60;99.90;;;;;;4999154;28;20493;-49
2023/10/06 09:42:27;;;;;;;6.07;4.20;;;21.70;99.90;;;;;;4999104;28;20580;-52
2023/10/06 09:45:05;;;;;;;6.33;3.33;;;21.70;99.90;;;;;;4997216;28;20556;-50
2023/10/06 09:47:36;;;;;;;4.63;3.80;;;21.60;99.90;;;;;;5002604;28;20972;-48
2023/10/06 09:50:03;;;;;;;4.83;3.80;;;21.60;99.90;;;;;;5003411;28;20461;-51
2023/10/06 09:52:35;;;;;;;4.67;3.90;;;21.70;99.90;;;;;;5004954;28;21170;-47
2023/10/06 09:55:04;;;;;;;4.97;3.73;;;21.60;99.90;;;;;;5004041;28;20478;-52
2023/10/06 09:57:32;;;;;;;3.80;3.10;;;21.80;99.90;;;;;;4999494;28;20471;-53
2023/10/06 10:00:01;;;;;;;4.70;3.80;;;21.70;99.90;;;;;;4998816;28;20971;-54
2023/10/06 10:02:30;;;;;;;5.77;4.03;;;21.70;99.90;;;;;;4988550;28;20930;-54
2023/10/06 10:05:01;;;;;;;3.83;3.53;;;21.70;99.90;;;;;;4997418;28;20465;-55
2023/10/06 10:07:29;;;;;;;5.33;3.40;;;21.80;99.90;;;;;;4998793;28;20465;-49
2023/10/06 10:09:58;;;;;;;5.67;3.63;;;21.80;99.90;;;;;;4997053;28;20537;-54
2023/10/06 10:12:37;;;;;;;4.40;3.43;;;21.80;99.90;;;;;;4993245;28;20459;-47
2023/10/06 10:15:16;;;;;;;5.47;4.07;;;21.80;99.90;;;;;;4995829;28;20471;-53
2023/10/06 10:17:51;;;;;;;3.87;3.47;;;21.80;99.90;;;;;;4995584;28;20594;-52
2023/10/06 10:20:18;;;;;;;6.83;4.47;;;21.80;99.90;;;;;;4998374;28;21263;-51
2023/10/06 10:22:45;;;;;;;5.90;3.37;;;21.90;99.90;;;;;;4998029;28;20489;-57
2023/10/06 10:25:13;;;;;;;4.47;3.37;;;21.80;99.90;;;;;;4999353;28;20994;-50
2023/10/06 10:27:40;;;;;;;4.17;3.40;;;21.80;99.90;;;;;;4992096;28;20466;-56
2023/10/06 10:30:14;;;;;;;7.50;4.07;;;21.80;99.90;;;;;;4995315;28;20478;-52
2023/10/06 10:32:42;;;;;;;4.70;3.53;;;21.80;99.90;;;;;;4994722;28;20464;-53
2023/10/06 10:35:12;;;;;;;3.47;3.17;;;21.70;99.90;;;;;;4996065;28;21220;-52
2023/10/06 10:37:55;;;;;;;5.00;4.30;;;21.80;99.90;;;;;;4995879;28;20454;-51
2023/10/06 10:40:24;;;;;;;5.20;3.20;;;21.70;99.90;;;;;;4995470;28;20518;-56
2023/10/06 10:42:57;;;;;;;4.03;2.43;;;21.80;99.90;;;;;;4985518;28;20554;-56
2023/10/06 10:45:34;;;;;;;4.23;2.53;;;21.70;99.90;;;;;;4985359;28;21161;-55
2023/10/06 10:48:04;;;;;;;5.00;2.77;;;21.70;99.90;;;;;;4991055;28;21042;-50
2023/10/06 10:50:59;;;;;;;5.60;3.17;;;21.70;99.90;;;;;;4987317;28;20595;-52
2023/10/06 10:53:29;;;;;;;8.83;3.10;;;21.70;99.90;;;;;;4989193;28;20796;-56
2023/10/06 10:55:58;;;;;;;5.20;3.00;;;21.70;99.90;;;;;;4985471;28;20553;-49
2023/10/06 10:58:53;;;;;;;5.77;2.70;;;21.70;99.90;;;;;;4992412;28;20505;-52
2023/10/06 11:01:29;;;;;;;6.73;3.20;;;21.70;99.90;;;;;;4995550;28;20527;-54
2023/10/06 11:04:18;;;;;;;7.13;2.80;;;21.70;99.90;;;;;;4988708;28;20462;-56
2023/10/06 11:06:45;;;;;;;5.30;3.27;;;21.60;99.90;;;;;;4994263;28;20462;-53
2023/10/06 11:09:25;;;;;;;6.40;2.90;;;21.70;99.90;;;;;;4991229;28;20486;-52
2023/10/06 11:11:57;;;;;;;3.60;3.30;;;21.70;99.90;;;;;;4994565;28;20470;-54
2023/10/06 11:14:25;;;;;;;5.07;2.50;;;21.60;99.90;;;;;;4992925;28;21085;-57
2023/10/06 11:16:53;;;;;;;4.33;2.93;;;21.70;99.90;;;;;;4990684;28;20462;-58
2023/10/06 11:19:20;;;;;;;3.10;2.63;;;21.70;99.90;;;;;;4993737;28;20446;-52
2023/10/06 11:21:48;;;;;;;3.57;3.07;;;21.60;99.90;;;;;;4992027;28;21476;-50
2023/10/06 11:24:29;;;;;;;5.60;2.80;;;21.60;99.90;;;;;;4999040;28;20482;-53
2023/10/06 11:26:57;;;;;;;5.60;3.30;;;21.60;99.90;;;;;;4993970;28;21054;-52
2023/10/06 11:29:31;;;;;;;3.40;2.33;;;21.80;99.90;;;;;;4990166;28;20455;-58
2023/10/06 11:32:01;;;;;;;6.63;2.70;;;21.60;99.90;;;;;;4988816;28;20473;-56
2023/10/06 11:34:28;;;;;;;3.00;2.70;;;21.60;99.90;;;;;;4989555;28;20581;-56
2023/10/06 11:36:56;;;;;;;5.70;3.43;;;21.60;99.90;;;;;;4996787;28;20282;-55
2023/10/06 11:39:24;;;;;;;6.00;2.30;;;21.60;99.90;;;;;;4995321;28;21180;-52
2023/10/06 11:41:52;;;;;;;4.33;2.70;;;21.70;99.90;;;;;;4992626;28;20634;-55
2023/10/06 11:44:20;;;;;;;4.10;2.57;;;21.60;99.90;;;;;;4993629;28;20466;-50
2023/10/06 11:46:52;;;;;;;3.80;2.67;;;21.60;99.90;;;;;;4988022;28;20467;-50
2023/10/06 11:49:20;;;;;;;4.10;2.83;;;21.60;99.90;;;;;;4994858;28;20451;-50
2023/10/06 11:51:49;;;;;;;4.03;2.53;;;21.70;99.90;;;;;;4998017;28;20905;-52
2023/10/06 11:54:15;;;;;;;3.53;2.80;;;21.60;99.90;;;;;;4992054;28;21361;-48
2023/10/06 11:56:49;;;;;;;4.27;2.90;;;21.70;99.90;;;;;;4986199;28;20460;-53
2023/10/06 11:59:24;;;;;;;5.30;3.27;;;21.70;99.90;;;;;;4993828;28;20489;-51
2023/10/06 12:01:50;;;;;;;4.33;2.63;;;21.60;99.90;;;;;;4992061;28;20541;-53
2023/10/06 12:04:26;;;;;;;6.30;3.40;;;21.70;99.90;;;;;;4989175;28;20458;-56
2023/10/06 12:06:55;;;;;;;5.90;3.30;;;21.70;99.90;;;;;;4991848;28;20461;-53
2023/10/06 12:09:29;;;;;;;6.40;2.80;;;21.60;99.90;;;;;;4987521;28;20562;-52
2023/10/06 12:11:59;;;;;;;6.80;4.23;;;21.70;99.90;;;;;;4987753;28;20486;-55
2023/10/06 12:14:27;;;;;;;10.30;3.93;;;21.60;99.90;;;;;;4989254;28;21010;-51
2023/10/06 12:16:55;;;;;;;4.50;3.37;;;21.70;99.90;;;;;;4983468;28;20463;-54
2023/10/06 12:19:23;;;;;;;7.10;3.40;;;21.70;99.90;;;;;;4986506;28;21985;-52
2023/10/06 12:21:50;;;;;;;6.43;3.60;;;21.70;99.90;;;;;;4994974;28;20528;-52
2023/10/06 12:24:17;;;;;;;3.93;3.47;;;21.70;99.90;;;;;;4997346;28;20454;-50
2023/10/06 12:26:46;;;;;;;5.33;2.80;;;21.70;99.90;;;;;;4995726;28;20460;-52
2023/10/06 12:29:16;;;;;;;8.30;3.20;;;21.80;99.90;;;;;;4996345;28;20466;-51
2023/10/06 12:31:45;;;;;;;6.97;3.57;;;21.70;99.90;;;;;;4995038;28;20491;-60
2023/10/06 12:34:15;;;;;;;7.33;2.93;;;21.70;99.90;;;;;;4996513;28;21193;-48
2023/10/06 12:36:46;;;;;;;12.33;3.00;;;21.70;99.90;;;;;;4995662;28;20450;-54
2023/10/06 12:39:16;;;;;;;6.97;4.80;;;21.70;99.90;;;;;;4995103;28;20471;-57
2023/10/06 12:41:46;;;;;;;4.77;3.00;;;21.80;99.90;;;;;;4993315;28;21089;-56
2023/10/06 12:44:13;;;;;;;4.60;2.67;;;21.70;99.90;;;;;;4999481;28;20453;-57
2023/10/06 12:46:40;;;;;;;6.93;2.70;;;21.80;99.90;;;;;;5000139;28;20474;-57
2023/10/06 12:49:08;;;;;;;4.33;2.83;;;21.80;99.90;;;;;;4999533;28;21765;-53
2023/10/06 12:51:36;;;;;;;4.60;2.63;;;21.80;99.90;;;;;;5000275;28;20709;-55
2023/10/06 12:54:03;;;;;;;7.10;3.77;;;21.90;99.90;;;;;;4996682;28;20957;-53
2023/10/06 12:56:30;;;;;;;4.00;2.70;;;21.90;99.90;;;;;;5000008;28;20550;-50
2023/10/06 12:58:57;;;;;;;4.73;3.10;;;21.90;99.90;;;;;;4995837;28;20483;-56